Time;durP1;ratioP1;P1;durP2;ratioP2;P2;SDS_P1;SDS_P2;PMS_P1;PMS_P2;Temp;Humidity;BMP_temperature;BMP_pressure;BME280_temperature;BME280_humidity;BME280_pressure;Samples;Min_cycle;Max_cycle;Signal;HPM_P1;HPM_P2
2023/06/08 00:02:42;;;;;;;5.68;3.58;;;18.60;77.50;;;;;;10478732;28;20032;-70
2023/06/08 00:07:43;;;;;;;6.68;3.53;;;18.50;77.50;;;;;;10476923;28;20024;-70
2023/06/08 00:12:44;;;;;;;7.22;4.13;;;18.40;78.10;;;;;;10474901;28;20628;-70
2023/06/08 00:17:45;;;;;;;5.53;3.47;;;18.40;77.50;;;;;;10479925;28;20017;-71
2023/06/08 00:22:47;;;;;;;7.10;3.72;;;18.40;77.50;;;;;;10476394;28;20025;-70
2023/06/08 00:27:48;;;;;;;7.97;3.90;;;18.30;77.50;;;;;;10473562;28;20028;-71
2023/06/08 00:32:48;;;;;;;6.85;3.65;;;18.30;77.50;;;;;;10485176;28;20411;-70
2023/06/08 00:37:49;;;;;;;5.82;3.47;;;18.30;77.50;;;;;;10477634;28;20472;-70
2023/06/08 00:42:50;;;;;;;8.85;3.95;;;18.30;77.50;;;;;;10482004;28;20020;-71
2023/06/08 00:47:51;;;;;;;7.57;3.53;;;18.20;77.50;;;;;;10481072;28;20111;-70
2023/06/08 00:52:51;;;;;;;7.68;3.90;;;18.20;77.60;;;;;;10476102;28;20040;-71
2023/06/08 00:57:52;;;;;;;5.43;3.50;;;18.20;77.60;;;;;;10493616;28;20024;-70
2023/06/08 01:02:53;;;;;;;6.40;3.53;;;18.20;77.60;;;;;;10485879;28;20013;-71
2023/06/08 01:08:28;;;;;;;6.97;3.72;;;18.20;77.70;;;;;;10479782;28;20487;-70
2023/06/08 01:14:03;;;;;;;8.02;4.10;;;18.10;77.70;;;;;;10472548;28;20492;-70
2023/06/08 01:19:10;;;;;;;8.07;4.03;;;18.10;77.80;;;;;;10478435;28;20519;-70
2023/06/08 01:24:15;;;;;;;8.63;3.90;;;18.00;77.70;;;;;;10474685;28;20021;-70
2023/06/08 01:29:21;;;;;;;6.28;3.95;;;18.00;77.70;;;;;;10493264;28;20044;-70
2023/06/08 01:34:22;;;;;;;7.82;3.83;;;18.00;77.70;;;;;;10481810;28;20017;-70
2023/06/08 01:39:38;;;;;;;9.07;3.60;;;18.00;77.80;;;;;;10485208;28;20086;-70
2023/06/08 01:44:47;;;;;;;5.10;3.97;;;17.90;77.80;;;;;;10480825;28;20435;-70
2023/06/08 01:49:49;;;;;;;10.20;4.35;;;17.90;77.80;;;;;;10476658;28;20417;-70
2023/06/08 01:54:50;;;;;;;6.40;3.75;;;17.90;77.90;;;;;;10487714;28;20484;-70
2023/06/08 01:59:51;;;;;;;5.47;3.75;;;17.80;77.80;;;;;;10474055;28;20021;-70
2023/06/08 02:04:51;;;;;;;6.00;3.67;;;17.80;77.80;;;;;;10475516;28;20051;-70
2023/06/08 02:09:52;;;;;;;6.32;3.88;;;17.80;77.80;;;;;;10487377;28;20032;-70
2023/06/08 02:14:52;;;;;;;5.97;3.63;;;17.80;77.90;;;;;;10484223;28;20387;-70
2023/06/08 02:19:54;;;;;;;5.63;3.63;;;17.70;77.90;;;;;;10494499;28;20023;-70
2023/06/08 02:24:54;;;;;;;6.47;3.60;;;17.70;77.90;;;;;;10487523;28;20051;-70
2023/06/08 02:29:57;;;;;;;6.28;3.88;;;17.70;77.90;;;;;;10489251;28;20028;-70
2023/06/08 02:34:57;;;;;;;7.57;3.92;;;17.80;78.00;;;;;;10476459;28;20440;-70
2023/06/08 02:39:58;;;;;;;6.40;3.72;;;17.70;78.10;;;;;;10480231;28;20104;-70
2023/06/08 02:44:58;;;;;;;7.07;4.18;;;17.60;78.00;;;;;;10491684;28;20046;-70
2023/06/08 02:49:59;;;;;;;8.45;4.15;;;17.60;78.00;;;;;;10482294;28;20035;-71
2023/06/08 02:55:00;;;;;;;9.98;3.92;;;17.60;78.00;;;;;;10479775;28;20020;-71
2023/06/08 03:00:01;;;;;;;5.63;3.90;;;17.60;78.10;;;;;;10486600;28;20017;-71
2023/06/08 03:05:03;;;;;;;4.80;3.40;;;17.60;78.10;;;;;;10490839;28;20036;-70
2023/06/08 03:10:04;;;;;;;4.93;3.80;;;17.60;78.20;;;;;;10484976;28;20316;-70
2023/06/08 03:15:06;;;;;;;7.60;3.75;;;17.60;78.20;;;;;;10483408;28;20012;-70
2023/06/08 03:20:08;;;;;;;7.28;4.18;;;17.50;78.10;;;;;;10483511;28;20039;-71
2023/06/08 03:25:10;;;;;;;6.63;4.53;;;17.50;78.20;;;;;;10490988;28;20064;-71
2023/06/08 03:30:11;;;;;;;5.93;3.50;;;17.50;78.20;;;;;;10489038;28;20056;-71
2023/06/08 03:35:12;;;;;;;7.57;4.18;;;17.50;78.20;;;;;;10486179;28;20020;-71
2023/06/08 03:40:12;;;;;;;7.93;3.92;;;17.40;78.20;;;;;;10487064;28;20031;-70
2023/06/08 03:45:13;;;;;;;7.57;4.13;;;17.40;78.20;;;;;;10485793;28;20029;-70
2023/06/08 03:50:14;;;;;;;9.57;4.05;;;17.40;78.20;;;;;;10490042;28;20107;-70
2023/06/08 03:55:16;;;;;;;6.82;3.60;;;17.40;78.30;;;;;;10483160;28;20024;-70
2023/06/08 04:00:19;;;;;;;6.22;3.63;;;17.30;78.20;;;;;;10471947;28;21022;-70
2023/06/08 04:05:20;;;;;;;4.88;3.72;;;17.30;78.30;;;;;;10485950;28;20028;-70
2023/06/08 04:10:21;;;;;;;6.82;3.75;;;17.30;78.30;;;;;;10489013;28;20043;-70
2023/06/08 04:15:21;;;;;;;8.15;3.63;;;17.30;78.30;;;;;;10482671;28;20021;-70
2023/06/08 04:20:22;;;;;;;6.07;3.85;;;17.30;78.30;;;;;;10474514;28;20531;-70
2023/06/08 04:25:25;;;;;;;7.10;3.80;;;17.30;78.30;;;;;;10488213;28;20492;-70
2023/06/08 04:30:26;;;;;;;7.22;4.13;;;17.30;78.30;;;;;;10485346;28;20016;-70
2023/06/08 04:35:27;;;;;;;7.78;4.13;;;17.30;78.30;;;;;;10483166;28;20025;-70
2023/06/08 04:40:29;;;;;;;10.65;3.80;;;17.30;78.40;;;;;;10486820;28;20062;-70
2023/06/08 04:45:30;;;;;;;8.85;3.97;;;17.20;78.30;;;;;;10482680;28;20028;-70
2023/06/08 04:50:30;;;;;;;8.85;4.30;;;17.20;78.30;;;;;;10480607;28;20024;-70
2023/06/08 04:55:31;;;;;;;6.85;3.60;;;17.20;78.30;;;;;;10496651;28;20451;-70
2023/06/08 05:00:32;;;;;;;7.15;3.85;;;17.30;78.40;;;;;;10482698;28;20074;-70
2023/06/08 05:05:33;;;;;;;8.82;4.10;;;17.20;78.40;;;;;;10488843;28;20028;-70
2023/06/08 05:10:33;;;;;;;7.80;3.78;;;17.30;78.40;;;;;;10485283;28;20307;-70
2023/06/08 05:15:34;;;;;;;8.18;4.05;;;17.20;78.40;;;;;;10486398;28;20028;-70
2023/06/08 05:20:35;;;;;;;7.90;3.95;;;17.20;78.40;;;;;;10480452;28;20400;-70
2023/06/08 05:25:37;;;;;;;10.68;5.35;;;17.20;78.50;;;;;;10472535;28;20029;-70
2023/06/08 05:30:37;;;;;;;7.90;3.83;;;17.20;78.50;;;;;;10480640;28;20021;-70
2023/06/08 05:35:38;;;;;;;7.57;4.13;;;17.20;78.60;;;;;;10477281;28;20025;-70
2023/06/08 05:40:39;;;;;;;8.90;3.63;;;17.10;78.50;;;;;;10486331;28;20029;-70
2023/06/08 05:45:40;;;;;;;7.32;3.85;;;17.10;78.60;;;;;;10501393;28;20472;-70
2023/06/08 05:50:40;;;;;;;7.85;4.15;;;17.10;78.60;;;;;;10495602;28;20032;-70
2023/06/08 05:55:41;;;;;;;7.35;4.75;;;17.10;78.70;;;;;;10475316;28;20099;-70
2023/06/08 06:00:42;;;;;;;7.63;4.38;;;17.00;78.80;;;;;;10477022;28;20129;-70
2023/06/08 06:05:43;;;;;;;7.15;4.10;;;17.10;78.90;;;;;;10470882;28;20165;-70
2023/06/08 06:10:43;;;;;;;6.57;4.20;;;17.10;78.90;;;;;;10494588;28;20519;-70
2023/06/08 06:15:44;;;;;;;9.40;4.38;;;17.10;78.90;;;;;;10486103;28;20428;-70
2023/06/08 06:20:45;;;;;;;7.78;4.78;;;17.10;78.90;;;;;;10482112;28;20070;-70
2023/06/08 06:25:45;;;;;;;8.45;4.78;;;17.10;79.00;;;;;;10488267;28;20035;-70
2023/06/08 06:30:46;;;;;;;5.60;3.83;;;17.00;79.20;;;;;;10478893;28;20107;-69
2023/06/08 06:35:47;;;;;;;7.40;4.15;;;17.10;79.20;;;;;;10470531;28;20032;-70
2023/06/08 06:40:50;;;;;;;6.13;4.43;;;17.10;79.20;;;;;;10484351;28;20464;-69
2023/06/08 06:45:52;;;;;;;7.22;4.53;;;17.10;79.20;;;;;;10485915;28;20110;-70
2023/06/08 06:50:52;;;;;;;8.43;4.85;;;17.10;79.20;;;;;;10481819;28;20024;-68
2023/06/08 06:55:53;;;;;;;7.22;4.03;;;17.10;79.30;;;;;;10479265;28;20035;-70
2023/06/08 07:00:55;;;;;;;5.68;4.10;;;17.10;79.30;;;;;;10467901;28;20104;-70
2023/06/08 07:05:59;;;;;;;5.40;4.00;;;17.10;79.40;;;;;;10472976;28;20438;-70
2023/06/08 07:11:01;;;;;;;5.22;3.97;;;17.20;79.50;;;;;;10487878;28;20016;-69
2023/06/08 07:16:03;;;;;;;7.03;4.70;;;17.20;79.50;;;;;;10485480;28;20018;-71
2023/06/08 07:21:03;;;;;;;8.88;4.80;;;17.10;80.00;;;;;;10490070;28;20089;-71
2023/06/08 07:26:04;;;;;;;11.77;4.78;;;17.00;80.30;;;;;;10481712;28;20136;-71
2023/06/08 07:31:05;;;;;;;8.93;4.97;;;17.00;80.50;;;;;;10488522;28;20025;-71
2023/06/08 07:36:05;;;;;;;9.60;4.50;;;17.00;80.60;;;;;;10499982;28;20522;-71
2023/06/08 07:41:06;;;;;;;9.23;5.20;;;17.00;80.50;;;;;;10483425;28;20040;-71
2023/06/08 07:46:07;;;;;;;11.05;5.50;;;17.10;80.60;;;;;;10496078;28;20051;-71
2023/06/08 07:51:08;;;;;;;6.05;3.83;;;17.10;80.80;;;;;;10487059;28;20033;-71
2023/06/08 07:56:09;;;;;;;7.82;5.03;;;17.10;80.90;;;;;;10501059;28;20234;-71
2023/06/08 08:01:09;;;;;;;6.90;4.32;;;17.10;80.90;;;;;;10495412;28;20024;-71
2023/06/08 08:06:10;;;;;;;8.25;4.00;;;17.10;80.70;;;;;;10473480;28;20043;-71
2023/06/08 08:11:11;;;;;;;7.10;4.20;;;17.20;80.70;;;;;;10475813;28;20035;-71
2023/06/08 08:16:12;;;;;;;7.80;4.25;;;17.20;80.70;;;;;;10483335;28;20038;-71
2023/06/08 08:21:12;;;;;;;9.02;4.32;;;17.30;80.90;;;;;;10475690;28;20034;-71
2023/06/08 08:26:13;;;;;;;5.82;3.67;;;17.30;80.90;;;;;;10474930;28;20127;-71
2023/06/08 08:31:14;;;;;;;11.35;3.97;;;17.30;80.90;;;;;;10482863;28;20032;-71
2023/06/08 08:36:16;;;;;;;5.32;3.38;;;17.30;80.90;;;;;;10475912;28;20033;-75
2023/06/08 08:41:20;;;;;;;6.88;3.85;;;17.30;81.00;;;;;;10475455;28;20032;-72
2023/06/08 08:46:22;;;;;;;8.00;3.88;;;17.40;81.10;;;;;;10477205;28;20029;-70
2023/06/08 08:51:23;;;;;;;6.80;3.50;;;17.40;81.10;;;;;;10479484;28;20035;-69
2023/06/08 08:56:25;;;;;;;7.80;3.35;;;17.50;80.90;;;;;;10477882;28;20577;-68
2023/06/08 09:01:26;;;;;;;9.95;3.28;;;17.50;80.90;;;;;;10480453;28;20481;-69
2023/06/08 09:06:30;;;;;;;12.38;4.38;;;17.60;80.90;;;;;;10470689;28;20059;-69
2023/06/08 09:11:34;;;;;;;7.93;3.50;;;17.60;80.90;;;;;;10476397;28;20056;-68
2023/06/08 09:16:43;;;;;;;6.20;3.50;;;17.60;80.90;;;;;;10480377;28;20040;-69
2023/06/08 09:21:44;;;;;;;6.53;3.45;;;17.70;81.00;;;;;;10469161;28;20032;-68
2023/06/08 09:26:51;;;;;;;8.00;3.72;;;17.70;80.90;;;;;;10480083;28;20024;-68
2023/06/08 09:31:52;;;;;;;9.25;3.50;;;17.70;81.60;;;;;;10478872;28;20539;-70
2023/06/08 09:37:08;;;;;;;5.55;3.03;;;17.80;80.90;;;;;;10480617;28;20105;-65
2023/06/08 09:42:09;;;;;;;5.93;3.25;;;17.90;81.20;;;;;;10477739;28;20041;-67
2023/06/08 09:47:27;;;;;;;8.43;3.45;;;17.90;80.90;;;;;;10483295;28;20363;-67
2023/06/08 09:52:33;;;;;;;8.30;3.30;;;18.10;81.30;;;;;;10478750;28;20028;-67
2023/06/08 09:57:36;;;;;;;11.25;4.40;;;18.10;81.00;;;;;;10477680;28;20036;-70
2023/06/08 10:03:00;;;;;;;9.73;6.03;;;18.30;80.90;;;;;;10470606;28;20029;-71
2023/06/08 10:08:02;;;;;;;8.10;4.78;;;18.60;81.60;;;;;;10477296;28;20040;-72
2023/06/08 10:13:04;;;;;;;9.18;4.28;;;18.80;80.50;;;;;;10485975;28;20604;-72
2023/06/08 10:18:06;;;;;;;8.70;4.13;;;19.00;79.90;;;;;;10479238;28;20028;-73
2023/06/08 10:23:07;;;;;;;8.90;3.67;;;19.10;79.40;;;;;;10479031;28;20031;-72
2023/06/08 10:28:09;;;;;;;6.03;3.47;;;19.20;79.60;;;;;;10471563;28;20495;-72
2023/06/08 10:33:15;;;;;;;9.25;4.07;;;19.40;79.50;;;;;;10484382;28;20368;-72
2023/06/08 10:38:16;;;;;;;9.23;3.50;;;19.60;78.60;;;;;;10480287;28;20021;-72
2023/06/08 10:43:21;;;;;;;9.82;3.90;;;19.70;78.10;;;;;;10483292;28;20112;-72
2023/06/08 10:48:22;;;;;;;12.90;4.15;;;19.80;78.10;;;;;;10481793;28;20070;-71
2023/06/08 10:53:41;;;;;;;10.75;4.10;;;19.90;77.80;;;;;;10477504;28;20021;-73
2023/06/08 10:58:51;;;;;;;8.77;3.83;;;20.10;76.70;;;;;;10478918;28;20559;-72
2023/06/08 11:03:58;;;;;;;12.18;3.97;;;20.10;77.10;;;;;;10474584;28;20021;-72
2023/06/08 11:08:59;;;;;;;12.18;4.30;;;20.30;77.50;;;;;;10480085;28;20099;-72
2023/06/08 11:14:02;;;;;;;14.25;3.95;;;20.50;77.10;;;;;;10484573;28;20484;-72
2023/06/08 11:19:09;;;;;;;10.40;4.40;;;20.70;76.40;;;;;;10486231;28;20024;-71
2023/06/08 11:24:09;;;;;;;7.82;3.67;;;20.80;76.30;;;;;;10482207;28;20111;-72
2023/06/08 11:29:10;;;;;;;11.77;4.05;;;20.90;76.40;;;;;;10481352;28;20031;-72
2023/06/08 11:34:15;;;;;;;9.63;4.20;;;21.00;76.60;;;;;;10476534;28;20032;-71
2023/06/08 11:39:16;;;;;;;10.85;4.18;;;21.00;76.00;;;;;;10485542;28;20104;-73
2023/06/08 11:44:16;;;;;;;8.55;4.38;;;21.10;75.90;;;;;;10475089;28;20045;-72
2023/06/08 11:49:17;;;;;;;10.50;3.80;;;21.20;75.80;;;;;;10475660;28;20027;-71
2023/06/08 11:54:17;;;;;;;7.28;3.85;;;21.20;75.40;;;;;;10482300;28;20029;-73
2023/06/08 11:59:24;;;;;;;12.07;4.30;;;21.40;74.90;;;;;;10481242;28;20040;-73
2023/06/08 12:04:33;;;;;;;10.52;3.55;;;21.50;74.60;;;;;;10480617;28;20491;-73
2023/06/08 12:09:33;;;;;;;10.63;3.63;;;21.70;75.00;;;;;;10480879;28;20091;-72
2023/06/08 12:14:46;;;;;;;9.60;4.25;;;22.00;75.20;;;;;;10475143;28;20020;-72
2023/06/08 12:19:47;;;;;;;14.90;4.43;;;22.20;74.50;;;;;;10467294;28;20540;-73
2023/06/08 12:24:47;;;;;;;9.35;4.15;;;22.40;74.40;;;;;;10479611;28;20147;-72
2023/06/08 12:29:48;;;;;;;9.98;3.97;;;22.40;73.90;;;;;;10487571;28;20192;-71
2023/06/08 12:34:49;;;;;;;8.57;4.20;;;22.50;74.00;;;;;;10487691;28;20021;-72
2023/06/08 12:39:52;;;;;;;10.00;4.35;;;22.60;74.10;;;;;;10485690;28;20029;-72
2023/06/08 12:44:53;;;;;;;9.50;4.13;;;22.60;74.10;;;;;;10483711;28;20463;-72
2023/06/08 12:49:54;;;;;;;9.82;3.88;;;22.70;74.40;;;;;;10475851;28;20050;-72
2023/06/08 12:54:54;;;;;;;11.50;4.10;;;22.70;74.00;;;;;;10480515;28;20040;-72
2023/06/08 12:59:55;;;;;;;7.65;3.95;;;22.80;74.00;;;;;;10488462;28;20118;-72
2023/06/08 13:04:56;;;;;;;11.90;4.00;;;22.80;74.00;;;;;;10470087;28;20074;-72
2023/06/08 13:09:58;;;;;;;7.07;3.53;;;23.00;73.80;;;;;;10491206;28;20559;-72
2023/06/08 13:14:58;;;;;;;7.97;4.20;;;23.10;73.70;;;;;;10482071;28;20095;-72
2023/06/08 13:19:59;;;;;;;6.50;4.07;;;23.30;73.70;;;;;;10486856;28;20024;-78
2023/06/08 13:24:59;;;;;;;7.05;3.20;;;23.40;73.20;;;;;;10476034;28;20025;-71
2023/06/08 13:30:00;;;;;;;10.65;3.67;;;23.40;73.20;;;;;;10479759;28;20094;-71
2023/06/08 13:35:01;;;;;;;7.95;3.38;;;23.30;73.20;;;;;;10474977;28;20020;-71
2023/06/08 13:40:01;;;;;;;6.97;3.58;;;23.40;73.30;;;;;;10475118;28;20096;-72
2023/06/08 13:45:02;;;;;;;8.15;3.50;;;23.60;73.20;;;;;;10483326;28;20430;-71
2023/06/08 13:50:04;;;;;;;11.57;3.85;;;23.60;73.10;;;;;;10476200;28;20394;-71
2023/06/08 13:55:05;;;;;;;11.68;4.20;;;23.70;73.10;;;;;;10480384;28;20028;-72
2023/06/08 14:00:06;;;;;;;13.27;3.92;;;23.80;72.90;;;;;;10484237;28;20032;-71
2023/06/08 14:05:08;;;;;;;10.70;4.22;;;23.90;72.70;;;;;;10484817;28;20033;-71
2023/06/08 14:10:09;;;;;;;10.05;4.20;;;23.90;72.90;;;;;;10487532;28;20029;-72
2023/06/08 14:15:10;;;;;;;14.95;3.95;;;24.00;72.90;;;;;;10474216;28;20040;-70
2023/06/08 14:20:11;;;;;;;7.10;4.13;;;24.00;72.60;;;;;;10483517;28;20114;-70
2023/06/08 14:25:12;;;;;;;7.63;3.78;;;24.00;72.40;;;;;;10484578;28;20024;-71
2023/06/08 14:30:12;;;;;;;6.32;3.20;;;23.90;72.20;;;;;;10473004;28;20024;-71
2023/06/08 14:35:13;;;;;;;8.93;3.42;;;23.90;72.70;;;;;;10481570;28;20048;-70
2023/06/08 14:40:13;;;;;;;8.45;3.80;;;23.90;72.50;;;;;;10474983;28;20033;-71
2023/06/08 14:45:15;;;;;;;23.00;7.78;;;23.80;72.20;;;;;;10482984;28;20052;-70
2023/06/08 14:50:21;;;;;;;10.85;4.93;;;23.90;72.20;;;;;;10484324;28;20020;-70
2023/06/08 14:55:22;;;;;;;8.02;3.75;;;23.80;72.10;;;;;;10483815;28;20282;-71
2023/06/08 15:00:23;;;;;;;10.35;3.50;;;23.80;72.20;;;;;;10475535;28;20108;-71
2023/06/08 15:05:23;;;;;;;7.78;3.42;;;23.80;72.00;;;;;;10470803;28;20037;-70
2023/06/08 15:10:25;;;;;;;6.10;3.10;;;23.70;71.90;;;;;;10485478;28;20035;-70
2023/06/08 15:15:25;;;;;;;6.70;3.35;;;23.70;71.50;;;;;;10482168;28;20020;-70
2023/06/08 15:20:26;;;;;;;9.32;3.80;;;23.70;71.60;;;;;;10485751;28;20048;-69
2023/06/08 15:25:27;;;;;;;9.02;3.78;;;23.60;71.40;;;;;;10472127;28;20040;-69
2023/06/08 15:30:27;;;;;;;8.43;2.92;;;23.50;71.20;;;;;;10481916;28;20430;-69
2023/06/08 15:35:28;;;;;;;9.23;3.08;;;23.40;71.40;;;;;;10480056;28;20103;-68
2023/06/08 15:40:28;;;;;;;8.52;3.20;;;23.30;71.30;;;;;;10486110;28;20081;-68
2023/06/08 15:45:29;;;;;;;6.68;3.20;;;23.20;71.30;;;;;;10474815;28;20033;-68
2023/06/08 15:50:30;;;;;;;5.95;2.90;;;23.10;71.20;;;;;;10481347;28;20037;-67
2023/06/08 15:55:30;;;;;;;9.68;2.88;;;23.00;71.20;;;;;;10483840;28;20037;-68
2023/06/08 16:00:36;;;;;;;6.15;2.63;;;22.70;71.30;;;;;;10478634;28;20404;-68
2023/06/08 16:05:37;;;;;;;7.18;2.80;;;22.50;71.10;;;;;;10473603;28;20033;-68
2023/06/08 16:10:37;;;;;;;8.35;2.78;;;22.40;71.00;;;;;;10473278;28;20074;-68
2023/06/08 16:15:38;;;;;;;5.20;2.45;;;22.20;70.60;;;;;;10482227;28;20013;-67
2023/06/08 16:20:39;;;;;;;6.43;2.70;;;22.20;70.80;;;;;;10480370;28;20355;-67
2023/06/08 16:25:39;;;;;;;6.80;3.00;;;22.10;70.40;;;;;;10478905;28;20033;-68
2023/06/08 16:30:40;;;;;;;7.22;2.80;;;22.00;70.10;;;;;;10490483;28;20020;-66
2023/06/08 16:35:40;;;;;;;5.03;2.22;;;22.00;70.70;;;;;;10472674;28;20496;-66
2023/06/08 16:40:41;;;;;;;4.50;2.40;;;22.20;71.00;;;;;;10472826;28;20016;-67
2023/06/08 16:45:41;;;;;;;5.07;2.40;;;22.30;71.20;;;;;;10474715;28;20024;-67
2023/06/08 16:50:42;;;;;;;5.65;2.15;;;22.40;71.40;;;;;;10476900;28;20041;-67
2023/06/08 16:55:43;;;;;;;4.47;2.42;;;22.50;71.60;;;;;;10476972;28;20074;-67
2023/06/08 17:00:44;;;;;;;3.70;2.20;;;22.60;71.90;;;;;;10480854;28;20024;-68
2023/06/08 17:05:45;;;;;;;5.13;1.90;;;22.60;72.10;;;;;;10481061;28;20510;-67
2023/06/08 17:10:45;;;;;;;5.43;2.08;;;22.60;72.40;;;;;;10486405;28;20036;-67
2023/06/08 17:15:46;;;;;;;3.75;2.05;;;22.60;72.50;;;;;;10479986;28;20012;-67
2023/06/08 17:20:46;;;;;;;6.07;2.20;;;22.60;72.70;;;;;;10476030;28;20075;-67
2023/06/08 17:25:47;;;;;;;6.10;2.40;;;22.70;73.00;;;;;;10480300;28;20037;-67
2023/06/08 17:30:49;;;;;;;5.20;2.35;;;22.70;73.30;;;;;;10470914;28;20040;-67
2023/06/08 17:35:50;;;;;;;4.00;2.35;;;22.60;73.40;;;;;;10479159;28;20078;-67
2023/06/08 17:40:50;;;;;;;2.20;1.80;;;22.60;73.60;;;;;;10490787;28;20021;-67
2023/06/08 17:45:51;;;;;;;6.50;2.08;;;22.60;73.70;;;;;;10483778;28;20103;-67
2023/06/08 17:50:52;;;;;;;5.47;2.17;;;22.50;74.00;;;;;;10490153;28;20233;-67
2023/06/08 17:55:54;;;;;;;2.30;1.67;;;22.50;74.20;;;;;;10484651;28;20032;-67
2023/06/08 18:00:54;;;;;;;3.75;1.73;;;22.50;74.40;;;;;;10485291;28;20058;-67
2023/06/08 18:05:56;;;;;;;3.33;1.75;;;22.40;74.60;;;;;;10495151;28;20033;-67
2023/06/08 18:10:58;;;;;;;3.90;1.85;;;22.50;74.80;;;;;;10490698;28;20016;-67
2023/06/08 18:15:58;;;;;;;2.67;1.42;;;22.40;74.90;;;;;;10491437;28;20028;-67
2023/06/08 18:20:59;;;;;;;2.67;1.70;;;22.40;75.00;;;;;;10495735;28;20459;-67
2023/06/08 18:25:59;;;;;;;7.38;2.30;;;22.40;75.20;;;;;;10489706;28;20020;-67
2023/06/08 18:31:00;;;;;;;4.47;1.80;;;22.30;75.30;;;;;;10485946;28;20115;-67
2023/06/08 18:36:01;;;;;;;5.70;2.10;;;22.20;75.30;;;;;;10493432;28;20009;-67
2023/06/08 18:41:01;;;;;;;5.05;1.80;;;22.20;75.50;;;;;;10485129;28;20032;-67
2023/06/08 18:46:02;;;;;;;4.25;1.90;;;22.10;75.50;;;;;;10487605;28;20017;-67
2023/06/08 18:51:02;;;;;;;3.30;1.65;;;22.10;75.70;;;;;;10484883;28;20025;-67
2023/06/08 18:56:03;;;;;;;4.05;2.17;;;22.10;75.80;;;;;;10488802;28;20024;-67
2023/06/08 19:01:04;;;;;;;3.35;1.90;;;22.00;75.80;;;;;;10484233;28;20028;-67
2023/06/08 19:06:04;;;;;;;3.80;1.83;;;21.90;75.90;;;;;;10491786;28;20033;-67
2023/06/08 19:11:05;;;;;;;2.85;2.03;;;21.90;76.00;;;;;;10484344;28;20081;-67
2023/06/08 19:16:06;;;;;;;5.47;1.85;;;21.80;76.00;;;;;;10487797;28;20028;-67
2023/06/08 19:21:11;;;;;;;4.55;2.03;;;21.80;76.10;;;;;;10483381;28;20028;-67
2023/06/08 19:26:12;;;;;;;3.15;1.85;;;21.80;76.30;;;;;;10497920;28;20142;-67
2023/06/08 19:31:12;;;;;;;3.90;1.90;;;21.70;76.30;;;;;;10494414;28;20028;-67
2023/06/08 19:36:14;;;;;;;4.90;2.05;;;21.70;76.40;;;;;;10484457;28;20024;-67
2023/06/08 19:41:15;;;;;;;3.60;1.73;;;21.60;76.50;;;;;;10477724;28;20036;-68
2023/06/08 19:46:24;;;;;;;3.45;1.70;;;21.60;76.60;;;;;;10480671;28;20024;-67
2023/06/08 19:51:25;;;;;;;3.08;2.00;;;21.50;76.70;;;;;;10468854;28;20063;-68
2023/06/08 19:56:26;;;;;;;4.15;1.63;;;21.50;76.80;;;;;;10480895;28;20035;-68
2023/06/08 20:01:26;;;;;;;4.78;1.95;;;21.40;76.80;;;;;;10483427;28;20254;-68
2023/06/08 20:06:27;;;;;;;4.13;1.63;;;21.30;76.80;;;;;;10478994;28;20222;-68
2023/06/08 20:11:28;;;;;;;3.70;1.73;;;21.30;76.90;;;;;;10480052;28;20047;-68
2023/06/08 20:16:28;;;;;;;4.88;1.85;;;21.20;76.90;;;;;;10480973;28;20025;-68
2023/06/08 20:21:29;;;;;;;3.85;2.25;;;21.20;77.00;;;;;;10477532;28;20476;-68
2023/06/08 20:26:30;;;;;;;5.20;1.70;;;21.10;77.00;;;;;;10477798;28;20025;-67
2023/06/08 20:31:33;;;;;;;4.93;1.85;;;21.10;77.10;;;;;;10477705;28;20116;-68
2023/06/08 20:36:35;;;;;;;4.00;1.80;;;21.00;77.00;;;;;;10475979;28;20028;-68
2023/06/08 20:41:37;;;;;;;6.07;2.20;;;21.00;77.10;;;;;;10474136;28;20101;-68
2023/06/08 20:46:38;;;;;;;5.13;1.90;;;21.00;77.10;;;;;;10471394;28;20082;-68
2023/06/08 20:51:38;;;;;;;5.57;2.30;;;20.90;77.10;;;;;;10480925;28;20093;-67
2023/06/08 20:56:39;;;;;;;4.28;1.88;;;20.90;77.20;;;;;;10478359;28;20024;-67
2023/06/08 21:01:40;;;;;;;3.55;2.05;;;20.80;77.20;;;;;;10468472;28;20032;-68
2023/06/08 21:06:40;;;;;;;3.22;1.98;;;20.70;77.10;;;;;;10475121;28;20037;-66
2023/06/08 21:11:41;;;;;;;4.50;1.73;;;20.80;77.20;;;;;;10480743;28;20317;-66
2023/06/08 21:16:44;;;;;;;3.58;1.88;;;20.60;77.20;;;;;;10473939;28;20018;-65
2023/06/08 21:21:44;;;;;;;5.05;1.58;;;20.60;77.30;;;;;;10473915;28;20062;-65
2023/06/08 21:26:45;;;;;;;4.43;1.98;;;20.50;77.30;;;;;;10466430;28;20423;-66
2023/06/08 21:31:45;;;;;;;3.45;1.98;;;20.50;77.40;;;;;;10474481;28;20090;-66
2023/06/08 21:36:46;;;;;;;3.97;1.60;;;20.50;77.40;;;;;;10470812;28;20031;-66
2023/06/08 21:41:47;;;;;;;4.95;1.80;;;20.40;77.40;;;;;;10480085;28;20615;-66
2023/06/08 21:46:48;;;;;;;4.22;1.92;;;20.40;77.50;;;;;;10478386;28;20039;-66
2023/06/08 21:51:48;;;;;;;3.53;1.77;;;20.30;77.50;;;;;;10471906;28;20129;-65
2023/06/08 21:56:49;;;;;;;5.28;1.85;;;20.30;77.50;;;;;;10478366;28;20468;-66
2023/06/08 22:01:50;;;;;;;5.30;1.85;;;20.20;77.50;;;;;;10467671;28;20029;-66
2023/06/08 22:06:50;;;;;;;6.15;2.15;;;20.20;77.60;;;;;;10475689;28;20021;-65
2023/06/08 22:11:53;;;;;;;4.45;2.20;;;20.10;77.60;;;;;;10484272;28;20296;-65
2023/06/08 22:16:54;;;;;;;6.57;2.00;;;20.10;77.50;;;;;;10476969;28;20021;-65
2023/06/08 22:21:55;;;;;;;7.40;1.95;;;20.10;77.60;;;;;;10486754;28;20024;-65
2023/06/08 22:26:56;;;;;;;5.80;1.92;;;20.00;77.50;;;;;;10479245;28;20057;-65
2023/06/08 22:31:56;;;;;;;5.75;2.35;;;20.00;77.50;;;;;;10481234;28;20024;-66
2023/06/08 22:36:57;;;;;;;6.30;2.38;;;19.90;77.50;;;;;;10483734;28;20519;-65
2023/06/08 22:41:57;;;;;;;5.90;2.13;;;19.90;77.50;;;;;;10480753;28;20396;-65
2023/06/08 22:46:59;;;;;;;4.03;2.00;;;19.80;77.50;;;;;;10477717;28;20028;-65
2023/06/08 22:52:02;;;;;;;4.43;1.95;;;19.80;77.50;;;;;;10484824;28;20023;-65
2023/06/08 22:57:05;;;;;;;6.88;2.28;;;19.80;77.50;;;;;;10480841;28;20074;-65
2023/06/08 23:02:05;;;;;;;7.22;2.28;;;19.70;77.50;;;;;;10474927;28;20112;-66
2023/06/08 23:07:06;;;;;;;5.97;2.60;;;19.70;77.50;;;;;;10485350;28;20093;-66
2023/06/08 23:12:13;;;;;;;6.22;2.25;;;19.70;77.60;;;;;;10488299;28;20031;-65
2023/06/08 23:17:14;;;;;;;5.07;2.10;;;19.60;77.60;;;;;;10490231;28;20036;-65
2023/06/08 23:22:22;;;;;;;4.03;2.22;;;19.50;77.50;;;;;;10481781;28;20028;-65
2023/06/08 23:27:22;;;;;;;5.07;2.25;;;19.50;77.50;;;;;;10479815;28;20089;-65
2023/06/08 23:32:23;;;;;;;3.72;2.10;;;19.50;77.60;;;;;;10482217;28;20028;-65
2023/06/08 23:37:23;;;;;;;6.63;1.95;;;19.30;77.50;;;;;;10487152;28;20047;-65
2023/06/08 23:42:24;;;;;;;7.00;2.50;;;19.40;77.50;;;;;;10481375;28;20571;-65
2023/06/08 23:47:25;;;;;;;6.63;2.42;;;19.30;77.50;;;;;;10472169;28;20105;-66
2023/06/08 23:52:26;;;;;;;5.03;2.33;;;19.30;77.50;;;;;;10482859;28;20033;-65
2023/06/08 23:57:27;;;;;;;7.00;2.60;;;19.20;77.50;;;;;;10488429;28;20020;-64
